createdAt,value
2017-07-14T00:00:44.500Z,90.3
2017-07-14T00:01:51.971Z,90.6
2017-07-14T00:02:59.111Z,90
2017-07-14T00:04:06.582Z,90.4
2017-07-14T00:05:14.057Z,89.8
2017-07-14T00:06:21.833Z,90
2017-07-14T00:07:29.310Z,90.2
2017-07-14T00:08:36.785Z,90.7
2017-07-14T00:09:44.262Z,90.1
2017-07-14T00:10:51.739Z,90.4
2017-07-14T00:11:59.514Z,90.3
2017-07-14T00:13:06.993Z,90
2017-07-14T00:14:14.464Z,90.7
2017-07-14T00:15:21.944Z,90.8
2017-07-14T00:16:29.424Z,90.7
2017-07-14T00:17:36.876Z,90.2
2017-07-14T00:18:44.356Z,90.6
2017-07-14T00:19:51.829Z,90.5
2017-07-14T00:20:59.303Z,90.4
2017-07-14T00:22:06.780Z,90.5
2017-07-14T00:23:14.520Z,90.4
2017-07-14T00:24:21.676Z,90.6
2017-07-14T00:25:29.150Z,90
2017-07-14T00:26:36.638Z,90
2017-07-14T00:27:44.115Z,90.2
2017-07-14T00:28:51.897Z,90.3
2017-07-14T00:29:59.377Z,90
2017-07-14T00:31:06.519Z,90.7
2017-07-14T00:32:14.003Z,90.7
2017-07-14T00:33:21.487Z,90.7
2017-07-14T00:34:29.210Z,90.2
2017-07-14T00:35:36.693Z,90.4
2017-07-14T00:36:44.161Z,90.5
2017-07-14T00:37:51.633Z,90.9
2017-07-14T00:38:58.776Z,91
2017-07-14T00:40:06.550Z,90.7
2017-07-14T00:41:13.694Z,90.3
2017-07-14T00:42:21.171Z,90.5
2017-07-14T00:43:28.662Z,90.6
2017-07-14T00:44:36.148Z,90.8
2017-07-14T00:45:43.874Z,91.2
2017-07-14T00:46:51.360Z,90.8
2017-07-14T00:47:58.830Z,90.8
2017-07-14T00:49:06.308Z,90.4
2017-07-14T00:50:13.795Z,91
2017-07-14T00:51:21.574Z,90.6
2017-07-14T00:52:29.045Z,90.4
2017-07-14T00:53:36.518Z,90.4
2017-07-14T00:54:43.994Z,90
2017-07-14T00:55:51.142Z,88.8
2017-07-14T00:56:58.918Z,90
2017-07-14T00:58:06.393Z,90
2017-07-14T00:59:13.876Z,88.7
2017-07-14T01:00:21.350Z,90
2017-07-14T01:01:28.824Z,89.6
2017-07-14T01:02:36.600Z,87.8
2017-07-14T01:03:44.077Z,90
2017-07-14T01:04:51.556Z,89.9
2017-07-14T01:05:59.036Z,90
2017-07-14T01:07:06.510Z,90
2017-07-14T01:08:13.624Z,90
2017-07-14T01:09:21.096Z,90
2017-07-14T01:10:28.561Z,90
2017-07-14T01:11:36.050Z,90
2017-07-14T01:12:43.530Z,89.8
2017-07-14T01:13:50.966Z,88.9
2017-07-14T01:14:58.449Z,90
2017-07-14T01:16:05.940Z,90
2017-07-14T01:17:13.418Z,90
2017-07-14T01:18:20.895Z,90
2017-07-14T01:19:28.672Z,90
2017-07-14T01:20:36.142Z,90.3
2017-07-14T01:21:43.288Z,90.1
2017-07-14T01:22:50.768Z,90.5
2017-07-14T01:23:58.237Z,90.1
2017-07-14T01:25:05.632Z,90.4
2017-07-14T01:26:13.109Z,90.4
2017-07-14T01:27:20.584Z,90.5
2017-07-14T01:28:27.731Z,90
2017-07-14T01:29:35.208Z,90
2017-07-14T01:30:43.001Z,90
2017-07-14T01:31:50.476Z,89.2
2017-07-14T01:32:57.954Z,88.3
2017-07-14T01:34:05.440Z,87.7
2017-07-14T01:35:12.912Z,88
2017-07-14T01:36:20.689Z,89.7
2017-07-14T01:37:28.167Z,89.9
2017-07-14T01:38:35.628Z,89.9
2017-07-14T01:39:43.100Z,90.1
2017-07-14T01:40:50.245Z,89.9
2017-07-14T01:43:20.113Z,89
2017-07-14T01:44:27.578Z,89.5
2017-07-14T01:45:35.053Z,88
2017-07-14T01:46:42.188Z,89.8
2017-07-14T01:47:49.913Z,90.1
2017-07-14T01:48:57.383Z,89.8
2017-07-14T01:50:04.854Z,90.2
2017-07-14T01:51:12.334Z,89.7
2017-07-14T01:52:19.807Z,90.2
2017-07-14T01:53:27.256Z,90.3
2017-07-14T01:54:34.730Z,90.3
2017-07-14T01:55:42.209Z,90.5
2017-07-14T01:56:49.685Z,90.6
2017-07-14T01:57:57.159Z,90.2
2017-07-14T01:59:04.934Z,90.4
2017-07-14T02:00:12.412Z,89.7
2017-07-14T02:01:19.891Z,90.4
2017-07-14T02:02:27.365Z,90.4
2017-07-14T02:03:34.839Z,90.2
2017-07-14T02:06:04.666Z,89.7
2017-07-14T02:07:12.147Z,90.5
2017-07-14T02:08:19.285Z,90.4
2017-07-14T02:09:26.763Z,90.4
2017-07-14T02:10:34.535Z,90.5
2017-07-14T02:11:42.009Z,90.3
2017-07-14T02:12:49.478Z,90.4
2017-07-14T02:13:56.962Z,90.4
2017-07-14T02:15:04.439Z,90.6
2017-07-14T02:16:12.214Z,90.6
2017-07-14T02:17:19.352Z,90.6
2017-07-14T02:18:26.829Z,90.6
2017-07-14T02:19:34.301Z,90.4
2017-07-14T02:20:41.776Z,90.5
2017-07-14T02:21:49.493Z,90.3
2017-07-14T02:22:56.980Z,90.6
2017-07-14T02:24:04.123Z,90.1
2017-07-14T02:25:11.269Z,90.4
2017-07-14T02:26:18.407Z,90.1
2017-07-14T02:27:26.207Z,90.5
2017-07-14T02:28:33.672Z,90.1
2017-07-14T02:29:41.147Z,90.3
2017-07-14T02:30:48.622Z,90.1
2017-07-14T02:31:56.096Z,90
2017-07-14T02:33:03.875Z,90.7
2017-07-14T02:34:11.355Z,90.9
2017-07-14T02:35:18.832Z,90.6
2017-07-14T02:36:26.308Z,90.5
2017-07-14T02:37:33.450Z,90.3
2017-07-14T02:38:41.226Z,90.5
2017-07-14T02:39:48.713Z,90.7
2017-07-14T02:40:56.187Z,90.8
2017-07-14T02:42:03.662Z,90.4
2017-07-14T02:43:11.148Z,90.6
2017-07-14T02:44:18.866Z,90.9
2017-07-14T02:45:26.343Z,90.7
2017-07-14T02:46:33.815Z,90.5
2017-07-14T02:47:41.286Z,90.2
2017-07-14T02:48:48.758Z,90.6
2017-07-14T02:49:56.534Z,90.6
2017-07-14T02:51:04.033Z,90.7
2017-07-14T02:52:11.175Z,90.4
2017-07-14T02:53:18.650Z,90.7
2017-07-14T02:54:25.811Z,90.5
2017-07-14T02:55:33.588Z,90.4
2017-07-14T02:56:41.063Z,90.4
2017-07-14T02:57:48.546Z,90.8
2017-07-14T02:58:56.019Z,91
2017-07-14T03:00:03.492Z,90.9
2017-07-14T03:01:11.228Z,90.8
2017-07-14T03:02:18.704Z,90.8
2017-07-14T03:03:26.178Z,90.1
2017-07-14T03:04:33.321Z,91.4
2017-07-14T03:05:40.802Z,91.6
2017-07-14T03:06:48.572Z,91.2
2017-07-14T03:07:56.050Z,91.4
2017-07-14T03:09:03.518Z,91.2
2017-07-14T03:10:10.988Z,91.2
2017-07-14T03:11:18.462Z,91
2017-07-14T03:12:26.238Z,91.5
2017-07-14T03:13:33.723Z,91.4
2017-07-14T03:14:40.872Z,91.5
2017-07-14T03:15:48.339Z,91.5
2017-07-14T03:16:55.812Z,92
2017-07-14T03:18:03.583Z,91.3
2017-07-14T03:19:10.734Z,90.7
2017-07-14T03:20:18.215Z,91.3
2017-07-14T03:21:25.686Z,91.5
2017-07-14T03:22:33.160Z,91.7
2017-07-14T03:23:40.931Z,91.6
2017-07-14T03:24:48.403Z,91.7
2017-07-14T03:25:55.879Z,91.6
2017-07-14T03:27:03.352Z,91.2
2017-07-14T03:28:10.828Z,91
2017-07-14T03:29:18.266Z,91
2017-07-14T03:30:25.410Z,91.3
2017-07-14T03:31:33.101Z,91.3
2017-07-14T03:32:40.573Z,91.1
2017-07-14T03:33:48.042Z,91.4
2017-07-14T03:34:55.769Z,90.1
2017-07-14T03:36:03.243Z,91.2
2017-07-14T03:37:10.713Z,91.9
2017-07-14T03:38:18.224Z,91.3
2017-07-14T03:39:25.695Z,92.1
2017-07-14T03:40:33.519Z,91.6
2017-07-14T03:41:40.661Z,92.1
2017-07-14T03:42:47.804Z,91.5
2017-07-14T03:43:55.497Z,91.3
2017-07-14T03:45:02.971Z,91.2
2017-07-14T03:46:10.742Z,91.5
2017-07-14T03:47:17.891Z,91
2017-07-14T03:48:25.028Z,91
2017-07-14T03:49:32.505Z,91.2
2017-07-14T03:50:39.975Z,91.2
2017-07-14T03:51:47.767Z,91.3
2017-07-14T03:52:55.242Z,91.2
2017-07-14T03:54:02.710Z,90.3
2017-07-14T03:55:10.183Z,91.1
2017-07-14T03:56:17.659Z,91.2
2017-07-14T03:57:25.050Z,91.2
2017-07-14T03:58:32.567Z,91.3
2017-07-14T03:59:40.035Z,91.6
2017-07-14T04:00:47.509Z,91.7
2017-07-14T04:01:54.988Z,91.4
2017-07-14T04:03:02.466Z,91.3
2017-07-14T04:04:09.936Z,91.2
2017-07-14T04:05:17.414Z,91.3
2017-07-14T04:06:24.888Z,91.5
2017-07-14T04:07:32.660Z,91.1
2017-07-14T04:08:40.138Z,91.3
2017-07-14T04:09:47.620Z,91.2
2017-07-14T04:10:55.088Z,91.4
2017-07-14T04:12:02.559Z,91.3
2017-07-14T04:13:10.336Z,90.8
2017-07-14T04:14:17.811Z,91.2
2017-07-14T04:15:25.289Z,91
2017-07-14T04:16:32.767Z,91.3
2017-07-14T04:17:40.242Z,90.7
2017-07-14T04:18:48.037Z,91.2
2017-07-14T04:19:55.511Z,90.9
2017-07-14T04:21:02.991Z,90.2
2017-07-14T04:22:10.463Z,90.9
2017-07-14T04:23:17.944Z,90.5
2017-07-14T04:24:25.669Z,90.1
2017-07-14T04:25:33.147Z,90.2
2017-07-14T04:26:40.622Z,91
2017-07-14T04:27:48.099Z,91.2
2017-07-14T04:28:55.574Z,90.9
2017-07-14T04:30:03.304Z,90.5
2017-07-14T04:31:10.784Z,90.8
2017-07-14T04:32:17.920Z,91.2
2017-07-14T04:33:25.392Z,90.8
2017-07-14T04:34:32.868Z,90.8
2017-07-14T04:35:40.650Z,90.9
2017-07-14T04:36:48.129Z,90.7
2017-07-14T04:37:55.608Z,90.4
2017-07-14T04:39:03.085Z,90.9
2017-07-14T04:40:10.558Z,90.8
2017-07-14T04:41:18.286Z,91
2017-07-14T04:42:25.753Z,90.8
2017-07-14T04:43:33.227Z,91.3
2017-07-14T04:44:40.699Z,91.1
2017-07-14T04:45:48.171Z,91.6
2017-07-14T04:46:55.651Z,91.2
2017-07-14T04:48:03.126Z,91.1
2017-07-14T04:49:10.903Z,91
2017-07-14T04:50:18.388Z,91.2
2017-07-14T04:51:25.872Z,91.4
2017-07-14T04:52:33.341Z,91.3
2017-07-14T04:53:40.825Z,91.3
2017-07-14T04:54:48.598Z,90.8
2017-07-14T04:55:56.073Z,91
2017-07-14T04:57:03.548Z,91
2017-07-14T04:58:11.025Z,91.1
2017-07-14T04:59:17.828Z,90.8
2017-07-14T05:00:25.608Z,90.6
2017-07-14T05:01:32.755Z,90.6
2017-07-14T05:02:40.229Z,90.6
2017-07-14T05:03:47.705Z,90.7
2017-07-14T05:04:55.180Z,90.4
2017-07-14T05:06:02.954Z,90.5
2017-07-14T05:07:10.429Z,90.6
2017-07-14T05:08:17.900Z,90.3
2017-07-14T05:09:25.382Z,90.3
2017-07-14T05:10:32.540Z,90.2
2017-07-14T05:11:40.319Z,89.7
2017-07-14T05:12:47.791Z,89.4
2017-07-14T05:13:55.269Z,90
2017-07-14T05:15:02.740Z,89.4
2017-07-14T05:16:10.216Z,88.2
2017-07-14T05:17:17.654Z,88.1
2017-07-14T05:18:25.136Z,88.2
2017-07-14T05:19:32.612Z,89.6
2017-07-14T05:20:40.092Z,87.3
2017-07-14T05:21:47.236Z,86.7
2017-07-14T05:22:55.013Z,88.9
2017-07-14T05:24:02.490Z,87.8
2017-07-14T05:25:09.969Z,89.2
2017-07-14T05:26:17.441Z,88.3
2017-07-14T05:27:24.909Z,88.2
2017-07-14T05:28:32.075Z,87.8
2017-07-14T05:29:39.216Z,87
2017-07-14T05:30:46.692Z,89.4
2017-07-14T05:31:54.463Z,88.9
2017-07-14T05:33:01.935Z,87.4
2017-07-14T05:34:09.410Z,88.7
2017-07-14T05:35:16.883Z,87.9
2017-07-14T05:36:24.358Z,88.3
2017-07-14T05:37:32.134Z,87.9
2017-07-14T05:38:39.611Z,90.2
2017-07-14T05:39:47.085Z,88.7
2017-07-14T05:40:54.559Z,88.3
2017-07-14T05:42:02.036Z,87.3
2017-07-14T05:43:09.485Z,89.2
2017-07-14T05:44:16.973Z,89.2
2017-07-14T05:45:24.442Z,89.7
2017-07-14T05:46:31.924Z,88.6
2017-07-14T05:47:39.404Z,89.5
2017-07-14T05:48:46.875Z,87.4
2017-07-14T05:49:54.372Z,89
2017-07-14T05:51:01.847Z,89
2017-07-14T05:52:08.993Z,90
2017-07-14T05:53:16.433Z,90.1
2017-07-14T05:54:23.915Z,90.5
2017-07-14T05:55:31.389Z,90.5
2017-07-14T05:56:38.871Z,90.5
2017-07-14T05:57:46.344Z,90.5
2017-07-14T05:58:54.118Z,90.7
2017-07-14T06:00:01.593Z,90.4
2017-07-14T06:01:09.074Z,90.7
2017-07-14T06:02:16.550Z,90.4
2017-07-14T06:03:24.020Z,90.8
2017-07-14T06:04:31.794Z,90.6
2017-07-14T06:05:38.605Z,90.6
2017-07-14T06:06:46.077Z,90.2
2017-07-14T06:07:53.555Z,89.8
2017-07-14T06:09:01.022Z,89.1
2017-07-14T06:10:08.813Z,87
2017-07-14T06:11:16.290Z,86.2
2017-07-14T06:12:23.766Z,86.3
2017-07-14T06:13:31.241Z,85.5
2017-07-14T06:14:38.719Z,83.4
2017-07-14T06:15:46.192Z,82.3
2017-07-14T06:16:53.665Z,84.3
2017-07-14T06:18:00.808Z,81.7
2017-07-14T06:19:08.284Z,81.9
2017-07-14T06:20:15.763Z,82.6
2017-07-14T06:21:23.550Z,82.8
2017-07-14T06:22:30.379Z,80.7
2017-07-14T06:23:37.858Z,80.4
2017-07-14T06:24:45.006Z,83.3
2017-07-14T06:25:52.485Z,82.9
2017-07-14T06:27:00.262Z,80.9
2017-07-14T06:28:07.745Z,82.1
2017-07-14T06:29:15.223Z,83.5
2017-07-14T06:30:22.707Z,83.5
2017-07-14T06:31:30.188Z,83.8
2017-07-14T06:32:38.019Z,79.8
2017-07-14T06:33:45.494Z,81.4
2017-07-14T06:34:52.969Z,79.3
2017-07-14T06:36:00.114Z,78.2
2017-07-14T06:37:07.590Z,78.7
2017-07-14T06:38:15.036Z,78.3
2017-07-14T06:39:22.510Z,79.3
2017-07-14T06:40:30.213Z,79.3
2017-07-14T06:41:37.670Z,80.8
2017-07-14T06:42:45.145Z,79.7
2017-07-14T06:43:53.100Z,79.8
2017-07-14T06:45:00.569Z,77.2
2017-07-14T06:46:08.068Z,79.2
2017-07-14T06:47:15.207Z,77.2
2017-07-14T06:48:22.682Z,79.7
2017-07-14T06:49:30.470Z,73.5
2017-07-14T06:50:37.946Z,75.3
2017-07-14T06:51:45.620Z,74.4
2017-07-14T06:52:53.098Z,74.1
2017-07-14T06:54:00.577Z,73.3
2017-07-14T06:55:08.059Z,73.7
2017-07-14T06:56:15.537Z,75.4
2017-07-14T06:57:23.021Z,75.3
2017-07-14T06:58:30.501Z,76.4
2017-07-14T06:59:37.983Z,75.3
2017-07-14T07:00:45.756Z,75.8
2017-07-14T07:01:53.233Z,74.1
2017-07-14T07:03:00.714Z,76.1
2017-07-14T07:04:08.192Z,73.9
2017-07-14T07:05:15.663Z,71.3
2017-07-14T07:06:23.114Z,72.4
2017-07-14T07:07:30.267Z,70.2
2017-07-14T07:08:37.744Z,70.4
2017-07-14T07:09:45.222Z,72.9
2017-07-14T07:10:52.691Z,70.8
2017-07-14T07:12:00.169Z,70.8
2017-07-14T07:13:07.652Z,71.3
2017-07-14T07:14:15.131Z,71.7
2017-07-14T07:15:22.625Z,72.3
2017-07-14T07:16:29.780Z,67.3
2017-07-14T07:17:37.552Z,65.8
2017-07-14T07:18:45.027Z,67.4
2017-07-14T07:19:52.513Z,68.6
2017-07-14T07:20:59.992Z,71.5
2017-07-14T07:22:07.465Z,70.3
2017-07-14T07:23:15.239Z,67.8
2017-07-14T07:24:22.724Z,69.6
2017-07-14T07:25:30.205Z,69.2
2017-07-14T07:26:37.693Z,65
2017-07-14T07:27:45.212Z,67.4
2017-07-14T07:28:52.995Z,65.1
2017-07-14T07:30:00.149Z,67.2
2017-07-14T07:31:07.293Z,64.8
2017-07-14T07:32:14.772Z,67.2
2017-07-14T07:33:22.254Z,65
2017-07-14T07:34:29.736Z,64.1
2017-07-14T07:35:37.218Z,63.1
2017-07-14T07:36:44.695Z,64
2017-07-14T07:37:52.172Z,66.8
2017-07-14T07:38:59.647Z,64
2017-07-14T07:40:07.427Z,66.1
2017-07-14T07:41:14.904Z,67.7
2017-07-14T07:42:22.387Z,66.4
2017-07-14T07:43:29.867Z,62.7
2017-07-14T07:44:37.011Z,62.3
2017-07-14T07:45:44.790Z,63.2
2017-07-14T07:46:52.278Z,65.3
2017-07-14T07:47:59.428Z,62.6
2017-07-14T07:49:06.916Z,64.5
2017-07-14T07:50:14.389Z,62.8
2017-07-14T07:51:21.499Z,63.8
2017-07-14T07:52:28.980Z,65.4
2017-07-14T07:53:36.462Z,65
2017-07-14T07:54:43.944Z,65.9
2017-07-14T07:55:51.425Z,65.1
2017-07-14T07:56:58.574Z,65.5
2017-07-14T07:58:06.060Z,65.2
2017-07-14T07:59:13.214Z,65.9
2017-07-14T08:00:20.693Z,64.4
2017-07-14T08:01:28.183Z,64.4
2017-07-14T08:02:35.969Z,66.6
2017-07-14T08:03:43.444Z,66.8
2017-07-14T08:04:50.922Z,66.7
2017-07-14T08:05:58.405Z,65.5
2017-07-14T08:07:05.890Z,66.8
2017-07-14T08:08:13.622Z,64.9
2017-07-14T08:09:21.096Z,68.1
2017-07-14T08:10:28.575Z,64.7
2017-07-14T08:11:36.058Z,61.4
2017-07-14T08:12:43.208Z,64.4
2017-07-14T08:13:50.940Z,63.5
2017-07-14T08:14:58.435Z,63.8
2017-07-14T08:16:05.918Z,66.7
2017-07-14T08:17:13.397Z,66.5
2017-07-14T08:18:20.885Z,64.5
2017-07-14T08:19:28.628Z,63.4
2017-07-14T08:20:35.777Z,63.8
2017-07-14T08:21:43.268Z,66.2
2017-07-14T08:22:50.786Z,63.6
2017-07-14T08:23:58.264Z,64.2
2017-07-14T08:25:05.992Z,65.4
2017-07-14T08:26:13.473Z,63.3
2017-07-14T08:27:20.952Z,62.9
2017-07-14T08:28:28.447Z,64.5
2017-07-14T08:30:43.003Z,64.2
2017-07-14T08:31:50.482Z,64.3
2017-07-14T08:32:57.965Z,64.6
2017-07-14T08:34:05.118Z,65.5
2017-07-14T08:35:12.600Z,66.8
2017-07-14T08:36:20.385Z,66.9
2017-07-14T08:37:27.867Z,65.6
2017-07-14T08:38:35.352Z,63.6
2017-07-14T08:39:42.837Z,63.7
2017-07-14T08:40:49.651Z,63.6
2017-07-14T08:41:57.137Z,63.6
2017-07-14T08:43:04.624Z,64.6
2017-07-14T08:44:12.028Z,63.7
2017-07-14T08:45:19.513Z,64.2
2017-07-14T08:46:26.989Z,63.2
2017-07-14T08:47:34.466Z,65
2017-07-14T08:48:41.966Z,64.4
2017-07-14T08:49:49.697Z,64.5
2017-07-14T08:50:57.181Z,65.4
2017-07-14T08:52:04.668Z,66.2
2017-07-14T08:53:11.818Z,66.2
2017-07-14T08:54:19.299Z,65
2017-07-14T08:55:26.780Z,64.4
2017-07-14T08:56:33.931Z,64.7
2017-07-14T08:57:41.409Z,65.4
2017-07-14T08:58:49.190Z,65.2
2017-07-14T08:59:56.670Z,65.8
2017-07-14T09:01:04.143Z,65.5
2017-07-14T09:02:11.621Z,66
2017-07-14T09:03:19.101Z,67.3
2017-07-14T09:04:26.878Z,66.8
2017-07-14T09:05:34.362Z,66
2017-07-14T09:06:41.844Z,65.4
2017-07-14T09:07:49.324Z,66
2017-07-14T09:08:56.805Z,68.3
2017-07-14T09:10:04.594Z,66.6
2017-07-14T09:11:12.087Z,66.9
2017-07-14T09:12:19.605Z,67.1
2017-07-14T09:13:27.090Z,65.9
2017-07-14T09:14:34.261Z,66.5
2017-07-14T09:15:41.746Z,65.7
2017-07-14T09:16:48.555Z,66.6
2017-07-14T09:17:55.709Z,66.5
2017-07-14T09:19:03.197Z,66.9
2017-07-14T09:20:10.682Z,66.2
2017-07-14T09:21:18.462Z,66.4
2017-07-14T09:22:25.943Z,67.2
2017-07-14T09:23:33.419Z,68.3
2017-07-14T09:24:40.572Z,67.1
2017-07-14T09:25:47.396Z,67.5
2017-07-14T09:26:55.182Z,67.6
2017-07-14T09:28:02.661Z,67.2
2017-07-14T09:29:10.144Z,67.3
2017-07-14T09:30:17.627Z,67.8
2017-07-14T09:31:24.785Z,66.9
2017-07-14T09:32:32.557Z,66.1
2017-07-14T09:33:40.033Z,67.7
2017-07-14T09:34:47.186Z,67.4
2017-07-14T09:35:54.672Z,67.8
2017-07-14T09:37:02.151Z,68.1
2017-07-14T09:38:09.937Z,67.9
2017-07-14T09:39:17.418Z,67.6
2017-07-14T09:40:24.896Z,69.4
2017-07-14T09:41:32.374Z,66.4
2017-07-14T09:42:39.858Z,65.9
2017-07-14T09:43:47.640Z,67
2017-07-14T09:44:55.122Z,66
2017-07-14T09:46:02.603Z,66.1
2017-07-14T09:47:10.098Z,66.6
2017-07-14T09:48:17.581Z,69
2017-07-14T09:49:25.369Z,68.6
2017-07-14T09:50:32.851Z,66.7
2017-07-14T09:51:40.331Z,67
2017-07-14T09:52:47.809Z,65
2017-07-14T09:53:55.281Z,66.2
2017-07-14T09:55:02.765Z,65
2017-07-14T09:56:10.243Z,63.1
2017-07-14T09:57:17.731Z,60.1
2017-07-14T09:58:24.543Z,61.9
2017-07-14T09:59:32.026Z,63.9
2017-07-14T10:00:39.805Z,61
2017-07-14T10:01:46.620Z,62
2017-07-14T10:02:54.099Z,62.6
2017-07-14T10:04:01.574Z,62.1
2017-07-14T10:05:09.070Z,60.1
2017-07-14T10:06:16.846Z,60.7
2017-07-14T10:07:23.657Z,64.9
2017-07-14T10:08:31.142Z,61.1
2017-07-14T10:09:38.286Z,61.3
2017-07-14T10:10:45.777Z,58.8
2017-07-14T10:11:53.556Z,60
2017-07-14T10:13:01.040Z,59.7
2017-07-14T10:14:08.532Z,58.5
2017-07-14T10:15:16.248Z,59
2017-07-14T10:16:23.723Z,57.8
2017-07-14T10:17:31.202Z,55.2
2017-07-14T10:18:38.685Z,54.2
2017-07-14T10:19:45.829Z,56
2017-07-14T10:20:53.310Z,55.7
2017-07-14T10:22:01.090Z,53.4
2017-07-14T10:23:08.567Z,58.8
2017-07-14T10:24:16.271Z,55.8
2017-07-14T10:25:23.750Z,57
2017-07-14T10:26:31.272Z,56.9
2017-07-14T10:27:39.054Z,51.7
2017-07-14T10:28:46.207Z,52.5
2017-07-14T10:29:53.373Z,53.2
2017-07-14T10:31:00.853Z,54.5
2017-07-14T10:32:08.329Z,57.8
2017-07-14T10:33:16.060Z,58.1
2017-07-14T10:34:23.544Z,53.7
2017-07-14T10:35:31.023Z,57.7
2017-07-14T10:36:38.502Z,51.8
2017-07-14T10:37:45.987Z,52.2
2017-07-14T10:38:53.769Z,55.9
2017-07-14T10:40:00.924Z,58.4
2017-07-14T10:41:08.071Z,57.6
2017-07-14T10:42:15.551Z,55.5
2017-07-14T10:43:23.040Z,57.4
2017-07-14T10:44:30.770Z,50.7
2017-07-14T10:45:38.252Z,50.3
2017-07-14T10:46:45.739Z,50.6
2017-07-14T10:47:53.219Z,50.7
2017-07-14T10:49:00.387Z,51.2
2017-07-14T10:50:08.169Z,50.2
2017-07-14T10:51:15.653Z,52.4
2017-07-14T10:52:23.141Z,51.7
2017-07-14T10:53:30.620Z,52.4
2017-07-14T10:54:38.102Z,50.3
2017-07-14T10:55:45.895Z,52.1
2017-07-14T10:56:53.379Z,52.6
2017-07-14T10:58:00.863Z,53.3
2017-07-14T10:59:08.341Z,54.9
2017-07-14T11:00:15.500Z,54.4
2017-07-14T11:01:22.667Z,49.6
2017-07-14T11:02:30.148Z,54.2
2017-07-14T11:03:37.642Z,51.5
2017-07-14T11:04:45.118Z,51
2017-07-14T11:05:52.596Z,51.9
2017-07-14T11:07:00.378Z,50
2017-07-14T11:08:07.527Z,51.8
2017-07-14T11:09:14.344Z,50.5
2017-07-14T11:10:21.829Z,50.7
2017-07-14T11:11:28.986Z,52.1
2017-07-14T11:12:36.773Z,51.1
2017-07-14T11:13:44.262Z,53.2
2017-07-14T11:14:51.748Z,54.9
2017-07-14T11:15:58.892Z,53.9
2017-07-14T11:17:06.378Z,51.3
2017-07-14T11:18:14.180Z,53
2017-07-14T11:19:21.659Z,51.9
2017-07-14T11:20:29.145Z,53.5
2017-07-14T11:21:36.630Z,52.6
2017-07-14T11:22:44.108Z,51.2
2017-07-14T11:23:51.599Z,50.5
2017-07-14T11:24:59.080Z,52.7
2017-07-14T11:26:06.562Z,53.9
2017-07-14T11:27:14.044Z,52
2017-07-14T11:28:21.526Z,53.2
2017-07-14T11:29:29.317Z,54.2
2017-07-14T11:30:36.467Z,54.9
2017-07-14T11:31:43.953Z,53.4
2017-07-14T11:32:51.445Z,53.7
2017-07-14T11:33:58.611Z,52
2017-07-14T11:35:06.398Z,52.7
2017-07-14T11:36:13.882Z,54.2
2017-07-14T11:37:21.371Z,54.1
2017-07-14T11:38:28.858Z,53.9
2017-07-14T11:39:36.342Z,52.4
2017-07-14T11:40:44.143Z,54.3
2017-07-14T11:41:51.622Z,54.1
2017-07-14T11:42:59.103Z,55.2
2017-07-14T11:44:06.592Z,54.8
2017-07-14T11:45:14.076Z,54.5
2017-07-14T11:46:21.525Z,54.1
2017-07-14T11:47:29.003Z,55
2017-07-14T11:48:36.487Z,53.7
2017-07-14T11:49:43.971Z,54.1
2017-07-14T11:50:51.458Z,54.6
2017-07-14T11:51:58.904Z,53.6
2017-07-14T11:53:06.386Z,53.6
2017-07-14T11:54:13.873Z,55.4
2017-07-14T11:55:21.362Z,55.2
2017-07-14T11:56:28.852Z,56.7
2017-07-14T11:57:36.630Z,56.5
2017-07-14T11:58:43.777Z,56.5
2017-07-14T11:59:50.933Z,59.3
2017-07-14T12:00:58.422Z,58.8
2017-07-14T12:02:05.904Z,59.5
2017-07-14T12:03:13.355Z,62.2
2017-07-14T12:04:20.840Z,62.8
2017-07-14T12:05:28.323Z,65.5
2017-07-14T12:06:35.798Z,64
2017-07-14T12:07:43.281Z,63.2
2017-07-14T12:08:50.725Z,64.5
2017-07-14T12:09:58.211Z,65.8
2017-07-14T12:11:05.696Z,63.1
2017-07-14T12:12:13.177Z,66.8
2017-07-14T12:13:20.338Z,62.2
2017-07-14T12:14:27.794Z,65.3
2017-07-14T12:15:35.275Z,63.1
2017-07-14T12:16:42.764Z,59.6
2017-07-14T12:17:50.264Z,61.5
2017-07-14T12:18:57.746Z,60.8
2017-07-14T12:20:05.204Z,57.8
2017-07-14T12:21:12.363Z,59.6
2017-07-14T12:22:19.515Z,59.4
2017-07-14T12:23:26.670Z,60.4
2017-07-14T12:24:34.159Z,60.3
2017-07-14T12:25:41.308Z,59.5
2017-07-14T12:26:48.451Z,60.9
2017-07-14T12:27:55.936Z,60.2
2017-07-14T12:29:03.415Z,59.2
2017-07-14T12:30:11.199Z,61.6
2017-07-14T12:31:18.676Z,61.4
2017-07-14T12:32:26.161Z,62
2017-07-14T12:33:33.308Z,61.7
2017-07-14T12:34:40.130Z,61
2017-07-14T12:35:47.912Z,62.6
2017-07-14T12:36:54.408Z,62.7
2017-07-14T12:38:01.908Z,61.2
2017-07-14T12:39:09.059Z,59.1
2017-07-14T12:40:16.540Z,61.5
2017-07-14T12:41:23.987Z,61.1
2017-07-14T12:42:31.147Z,61.5
2017-07-14T12:43:38.626Z,61.1
2017-07-14T12:44:46.105Z,59.7
2017-07-14T12:45:53.245Z,58.1
2017-07-14T12:47:01.027Z,59.4
2017-07-14T12:48:08.515Z,60.4
2017-07-14T12:49:15.664Z,60.7
2017-07-14T12:50:22.818Z,60.2
2017-07-14T12:51:30.297Z,58
2017-07-14T12:52:37.445Z,59.5
2017-07-14T12:53:44.599Z,61.1
2017-07-14T12:54:52.091Z,60.1
2017-07-14T12:55:59.569Z,57.4
2017-07-14T12:57:07.050Z,56.6
2017-07-14T12:58:14.837Z,58.1
2017-07-14T12:59:21.977Z,58.4
2017-07-14T13:00:29.454Z,58
2017-07-14T13:01:36.935Z,58.1
2017-07-14T13:02:44.418Z,60
2017-07-14T13:03:52.197Z,59.7
2017-07-14T13:04:59.685Z,58.3
2017-07-14T13:06:06.524Z,60
2017-07-14T13:07:14.013Z,59.8
2017-07-14T13:08:21.496Z,60.2
2017-07-14T13:09:28.948Z,58.8
2017-07-14T13:10:36.102Z,58.7
2017-07-14T13:11:43.583Z,59.2
2017-07-14T13:12:51.066Z,58.3
2017-07-14T13:13:58.219Z,57.7
2017-07-14T13:15:06.055Z,54.8
2017-07-14T13:16:13.539Z,58.3
2017-07-14T13:17:20.691Z,59.1
2017-07-14T13:18:27.837Z,60.9
2017-07-14T13:19:35.317Z,59.4
2017-07-14T13:20:42.823Z,59.9
2017-07-14T13:21:49.980Z,58.7
2017-07-14T13:22:57.458Z,56.3
2017-07-14T13:24:04.942Z,58.8
2017-07-14T13:25:12.424Z,55.1
2017-07-14T13:26:19.920Z,54.5
2017-07-14T13:27:27.700Z,55.7
2017-07-14T13:28:35.183Z,56.1
2017-07-14T13:29:42.666Z,57.4
2017-07-14T13:30:49.820Z,52.2
2017-07-14T13:31:57.298Z,52.7
2017-07-14T13:33:05.076Z,53.9
2017-07-14T13:34:11.886Z,57.3
2017-07-14T13:35:19.389Z,53.9
2017-07-14T13:36:26.870Z,53.3
2017-07-14T13:37:34.349Z,54.2
2017-07-14T13:38:42.127Z,55.7
2017-07-14T13:39:49.612Z,53.8
2017-07-14T13:40:57.098Z,52.2
2017-07-14T13:42:04.247Z,51
2017-07-14T13:43:11.729Z,52.5
2017-07-14T13:44:19.516Z,51.9
2017-07-14T13:45:27.005Z,51.9
2017-07-14T13:46:34.479Z,53.4
2017-07-14T13:47:41.638Z,52.6
2017-07-14T13:48:49.128Z,53
2017-07-14T13:49:56.577Z,50.9
2017-07-14T13:51:03.727Z,53.5
2017-07-14T13:52:11.210Z,52.3
2017-07-14T13:53:18.365Z,52.4
2017-07-14T13:54:25.854Z,51.5
2017-07-14T13:55:33.338Z,50.9
2017-07-14T13:56:41.174Z,52.4
2017-07-14T13:57:48.651Z,52
2017-07-14T13:58:56.132Z,55.4
2017-07-14T14:00:03.610Z,53.9
2017-07-14T14:01:11.088Z,52.6
2017-07-14T14:02:18.871Z,51.6
2017-07-14T14:03:26.015Z,54
2017-07-14T14:04:33.170Z,49.4
2017-07-14T14:05:40.656Z,51.2
2017-07-14T14:06:47.480Z,51.3
2017-07-14T14:07:54.985Z,51.4
2017-07-14T14:09:02.470Z,50
2017-07-14T14:10:09.970Z,47.9
2017-07-14T14:11:17.454Z,49
2017-07-14T14:12:24.610Z,47.6
2017-07-14T14:13:32.455Z,51.2
2017-07-14T14:14:39.936Z,49.7
2017-07-14T14:15:46.753Z,49.9
2017-07-14T14:16:53.574Z,48.8
2017-07-14T14:18:00.734Z,47.8
2017-07-14T14:19:08.212Z,46.5
2017-07-14T14:20:15.695Z,47.6
2017-07-14T14:21:23.180Z,47.7
2017-07-14T14:22:30.326Z,48.4
2017-07-14T14:23:37.812Z,49.3
2017-07-14T14:24:45.597Z,47.8
2017-07-14T14:25:52.752Z,47.8
2017-07-14T14:26:59.902Z,50.1
2017-07-14T14:28:07.387Z,51.5
2017-07-14T14:29:14.875Z,50.5
2017-07-14T14:30:22.360Z,50.4
2017-07-14T14:31:29.816Z,50.5
2017-07-14T14:32:37.293Z,49.3
2017-07-14T14:33:44.441Z,50.4
2017-07-14T14:34:51.587Z,51.3
2017-07-14T14:35:58.403Z,50.6
2017-07-14T14:37:05.569Z,50.7
2017-07-14T14:38:13.057Z,51.6
2017-07-14T14:39:20.543Z,50.3
2017-07-14T14:40:28.028Z,53.7
2017-07-14T14:41:35.183Z,51.4
2017-07-14T14:42:42.737Z,52.1
2017-07-14T14:43:49.890Z,53
2017-07-14T14:44:57.376Z,51.5
2017-07-14T14:46:05.088Z,51.6
2017-07-14T14:47:12.575Z,51.7
2017-07-14T14:48:19.931Z,52.3
2017-07-14T14:49:27.416Z,52.5
2017-07-14T14:50:34.566Z,52.8
2017-07-14T14:51:42.057Z,53.3
2017-07-14T14:52:49.538Z,53.8
2017-07-14T14:53:56.990Z,53.8
2017-07-14T14:55:03.817Z,53.1
2017-07-14T14:56:10.971Z,54
2017-07-14T14:57:18.130Z,53.2
2017-07-14T14:58:25.610Z,53.4
2017-07-14T14:59:33.067Z,54.1
2017-07-14T15:00:40.218Z,55
2017-07-14T15:01:47.034Z,54.8
2017-07-14T15:02:54.518Z,54.2
2017-07-14T15:04:02.003Z,54.1
2017-07-14T15:05:09.792Z,55.5
2017-07-14T15:06:16.933Z,55.6
2017-07-14T15:07:24.086Z,55.5
2017-07-14T15:08:31.574Z,55.8